TJSJ

Luis Munoz Marin International Airport

San Juan, Puerto Rico, USA
TJSJ 221126Z 2212/2312 08009KT P6SM VCSH SCT028 SCT040 FM221430 06015KT P6SM FEW025 SCT050 FM222300 09005KT P6SM VCSH SCT035
Issued Valid From Valid To
Sep-22 @ 11:26 UTC
(4 hours ago)
Sep-22 @ 12:00 UTC
(3 hours ago)
Sep-23 @ 12:00 UTC
(in 21 hours)
to
to
to
TJSJ 221126Z 2212/2312 08009KT P6SM VCSH SCT028 SCT040 FM221430 06015KT P6SM FEW025 SCT050 FM222300 09005KT P6SM VCSH SCT035
Issued Sep-22 @ 11:26 UTC
(4 hours ago)
Valid From Sep-22 @ 12:00 UTC
(3 hours ago)
Valid To Sep-23 @ 12:00 UTC
(in 21 hours)
-
-
-